Danville, Washington
Current Conditions -  °F | °C
As of 5:00 PM on Saturday 20 Dec 2014 (Local Time) from CYCG Reporting Station
Light Rain Light Rain  
Wind Chill:   Ceiling: 2500
Heat Index:   Visibility: 4mi
Dew Point:   Wind: 2mph
Humidity: 100%   Direction: 120°ESE
Pressure: 29.68"   Gusts: NA
Location:  48.99°N, 118.51°W
Report Text: CYCG 210100Z 12002KT 4SM -RA BR FEW002 SCT008 OVC025 01/01 A2968 RMK SF1SC2SC5 LAST OBS/NEXT 211400 UTC SLP065
Loading
Personal Weather Stations






























Interactive Weather Map New forecast layout! Learn more

10-Day Weather Forecast

Advertisements
Track Severe Weather on mobile